Mumbai Express — V2AH1 — position and weather

sailwx.info

Track history (hours):
 
Tides and Currents Weather Stations Pressure Air Temp Water Temp Dewpoint Dewpoint Depression Visibility Wind Speed Wind Dir Waves Ship Positions

Mumbai Express

Last reported at 2015-Jan-22 09:25 UTC. Time now 2015-Jan-26 00:25 UTC.
Position N 32°01' W 080°10'.

Length 260.7 m; beam 32.3 m; draft 12.5 m.

Type: Ship. MMSI: 304010914.

Date/timePositionNaut miles runAvg speedWind from/ knotsBaromVisibWave heightAir tempDewpointWater temp
2015-Jan-22 09:25N 32°01' W 080°10'1012.0
2015-Jan-22 08:33N 32°00' W 080°22'9 9.3
2015-Jan-22 07:34N 31°59' W 080°33'9 9.4
2015-Jan-22 06:34N 31°58' W 080°44'1414.1
2015-Jan-22 05:34N 32°05' W 080°59'7 7.2
2015-Jan-22 04:33N 32°06' W 081°07'2 1.7
2015-Jan-22 03:32N 32°08' W 081°08'0 0.0
2015-Jan-22 02:32N 32°08' W 081°08'0 0.0
2015-Jan-22 01:31N 32°08' W 081°08'0 0.0
2015-Jan-22 00:31N 32°08' W 081°08'0 0.0
2015-Jan-21 23:31N 32°08' W 081°08'0 0.0
2015-Jan-21 22:49N 32°08' W 081°08'0 0.2
2015-Jan-21 22:46N 32°08' W 081°08'0 0.0
2015-Jan-21 22:31N 32°08' W 081°08'0 0.0
2015-Jan-21 21:33N 32°08' W 081°08'0 0.0
2015-Jan-21 20:33N 32°08' W 081°08'0 0.0
2015-Jan-21 19:32N 32°08' W 081°08'0 0.0
2015-Jan-21 18:32N 32°08' W 081°08'0 0.0
2015-Jan-21 17:32N 32°08' W 081°08'0 0.0
2015-Jan-21 16:28N 32°08' W 081°08'0 0.0
2015-Jan-21 15:31N 32°08' W 081°08'0 0.0
2015-Jan-21 14:33N 32°08' W 081°08'0 0.0
2015-Jan-21 13:33N 32°08' W 081°08'0 0.0
2015-Jan-21 12:33N 32°08' W 081°08'0 0.0
2015-Jan-21 11:33N 32°08' W 081°08'0 0.1
2015-Jan-21 10:34N 32°08' W 081°08'4 3.8
2015-Jan-21 09:33N 32°05' W 081°06'8 8.4
2015-Jan-21 08:33N 32°03' W 080°56'1212.4
2015-Jan-21 07:33N 31°58' W 080°43'5 4.9
2015-Jan-21 06:33N 31°58' W 080°37'9 8.8
2015-Jan-21 05:33N 31°59' W 080°27'9 8.9
2015-Jan-21 04:33N 32°00' W 080°16'  
2015-Jan-18 05:33N 37°54' W 076°09'5418.1
2015-Jan-18 02:33N 38°47' W 076°25'1717.4
2015-Jan-18 01:34N 39°04' W 076°24'1110.8
2015-Jan-18 00:33N 39°13' W 076°32'2 2.2
2015-Jan-17 23:31N 39°15' W 076°33'0 0.0
2015-Jan-17 22:33N 39°15' W 076°33'0 0.0
2015-Jan-17 21:33N 39°15' W 076°33'0 0.0
2015-Jan-17 20:32N 39°15' W 076°33'0 0.0
2015-Jan-17 19:32N 39°15' W 076°33'0 0.0
2015-Jan-17 18:32N 39°15' W 076°33'0 0.0
2015-Jan-17 17:31N 39°15' W 076°33'0 0.0
2015-Jan-17 16:31N 39°15' W 076°33'0 0.0
2015-Jan-17 15:33N 39°15' W 076°33'0 0.0
2015-Jan-17 14:30N 39°15' W 076°33'0 0.0
2015-Jan-17 13:32N 39°15' W 076°33'0 0.0
2015-Jan-17 12:32N 39°15' W 076°33'0 0.0
2015-Jan-17 11:32N 39°15' W 076°33'0 0.0
2015-Jan-17 10:32N 39°15' W 076°33'4 4.3
2015-Jan-17 09:33N 39°12' W 076°30'10 9.9
2015-Jan-17 08:33N 39°03' W 076°23'1515.3
2015-Jan-17 07:33N 38°48' W 076°25'4117.0
2015-Jan-17 05:10N 38°08' W 076°13'1017.0
2015-Jan-17 04:33N 37°58' W 076°11'137 7.6
2015-Jan-16 10:32N 39°26' W 073°56'1717.0
2015-Jan-16 09:33N 39°42' W 073°53'1817.1
2015-Jan-16 08:31N 39°60' W 073°51'1712.5
2015-Jan-16 07:08N 40°17' W 073°49'5 9.2
2015-Jan-16 06:33N 40°22' W 073°49'9 8.9
2015-Jan-16 05:33N 40°30' W 073°56'1212.2
2015-Jan-16 04:33N 40°39' W 074°07'3 3.1
2015-Jan-16 03:33N 40°41' W 074°09'0 0.0
2015-Jan-16 02:32N 40°41' W 074°09'0 0.0
2015-Jan-16 01:32N 40°41' W 074°09'0 0.0
2015-Jan-16 00:07N 40°41' W 074°09'0 0.0
2015-Jan-15 23:31N 40°41' W 074°09'0 0.0
2015-Jan-15 22:30N 40°41' W 074°09'0 0.0
2015-Jan-15 21:33N 40°41' W 074°09'0 0.0
2015-Jan-15 20:30N 40°41' W 074°09'0 0.0
2015-Jan-15 19:32N 40°41' W 074°09'0 0.0
2015-Jan-15 18:32N 40°41' W 074°09'0 0.0
2015-Jan-15 17:31N 40°41' W 074°09'0 0.0
2015-Jan-15 16:31N 40°41' W 074°09'0 0.0
2015-Jan-15 15:33N 40°41' W 074°09'0 0.0
2015-Jan-15 14:33N 40°41' W 074°09'0 0.0
2015-Jan-15 13:33N 40°41' W 074°09'0 0.0
2015-Jan-15 12:26N 40°41' W 074°09'0 0.0
2015-Jan-15 11:26N 40°41' W 074°09'1 1.3
2015-Jan-15 10:33N 40°40' W 074°08'4 4.2
2015-Jan-15 09:34N 40°38' W 074°03'1010.4
2015-Jan-15 08:34N 40°30' W 073°56'8 8.4
2015-Jan-15 07:34N 40°27' W 073°45'9 8.9
2015-Jan-15 06:33N 40°28' W 073°34'9 9.2
2015-Jan-15 05:33N 40°29' W 073°22'1010.1
2015-Jan-15 04:33N 40°29' W 073°08'1010.2
2015-Jan-15 03:33N 40°30' W 072°55'1010.3
2015-Jan-15 02:33N 40°31' W 072°42'1010.2
2015-Jan-15 01:33N 40°30' W 072°28'1010.3
2015-Jan-15 00:33N 40°31' W 072°14'1110.9
2015-Jan-14 23:33N 40°31' W 072°00'1110.6
2015-Jan-14 22:34N 40°31' W 071°46'1110.9
2015-Jan-14 21:33N 40°31' W 071°32'1110.9
2015-Jan-14 20:33N 40°32' W 071°18'1111.0
2015-Jan-14 19:33N 40°32' W 071°03'2412.1
2015-Jan-14 17:33N 40°33' W 070°31'1312.6
2015-Jan-14 16:33N 40°33' W 070°15'1312.8
2015-Jan-14 15:33N 40°33' W 069°58'1312.7
2015-Jan-14 14:33N 40°33' W 069°41'1412.4
2015-Jan-14 13:25N 40°34' W 069°22'1211.4
2015-Jan-14 12:19N 40°39' W 069°07'1910.0
2015-Jan-14 10:26N 40°58' W 069°08'910.7
2015-Jan-14 09:33N 41°06' W 069°14'1010.5
2015-Jan-14 08:33N 41°15' W 069°21'1010.4
2015-Jan-14 07:33N 41°24' W 069°27'1010.2
2015-Jan-14 06:33N 41°34' W 069°33'1210.6
2015-Jan-14 05:27N 41°44' W 069°40'1410.5
2015-Jan-14 04:07N 41°57' W 069°48'54 9.3
2015-Jan-13 22:22N 42°24' W 070°51'5 0.4
2015-Jan-13 09:05N 42°21' W 070°56'5 8.9
2015-Jan-13 08:33N 42°24' W 070°51'9 9.2
2015-Jan-13 07:33N 42°22' W 070°39'81 3.8
2015-Jan-12 10:06N 41°24' W 069°22'713.5
2015-Jan-12 09:33N 41°18' W 069°18'  
Track history (hours):
 
Tides and Currents Weather Stations Pressure Air Temp Water Temp Dewpoint Dewpoint Depression Visibility Wind Speed Wind Dir Waves Ship Positions

Mumbai Express

Last reported at 2015-Jan-22 09:25 UTC. Time now 2015-Jan-26 00:25 UTC.
Position N 32°01' W 080°10'.

Length 260.7 m; beam 32.3 m; draft 12.5 m.

Type: Ship. MMSI: 304010914.

Date/timePositionNaut miles runAvg speedWind from/ knotsBaromVisibWave heightAir tempDewpointWater temp
2015-Jan-22 09:25N 32°01' W 080°10'1012.0
2015-Jan-22 08:33N 32°00' W 080°22'9 9.3
2015-Jan-22 07:34N 31°59' W 080°33'9 9.4
2015-Jan-22 06:34N 31°58' W 080°44'1414.1
2015-Jan-22 05:34N 32°05' W 080°59'7 7.2
2015-Jan-22 04:33N 32°06' W 081°07'2 1.7
2015-Jan-22 03:32N 32°08' W 081°08'0 0.0
2015-Jan-22 02:32N 32°08' W 081°08'0 0.0
2015-Jan-22 01:31N 32°08' W 081°08'0 0.0
2015-Jan-22 00:31N 32°08' W 081°08'0 0.0
2015-Jan-21 23:31N 32°08' W 081°08'0 0.0
2015-Jan-21 22:49N 32°08' W 081°08'0 0.2
2015-Jan-21 22:46N 32°08' W 081°08'0 0.0
2015-Jan-21 22:31N 32°08' W 081°08'0 0.0
2015-Jan-21 21:33N 32°08' W 081°08'0 0.0
2015-Jan-21 20:33N 32°08' W 081°08'0 0.0
2015-Jan-21 19:32N 32°08' W 081°08'0 0.0
2015-Jan-21 18:32N 32°08' W 081°08'0 0.0
2015-Jan-21 17:32N 32°08' W 081°08'0 0.0
2015-Jan-21 16:28N 32°08' W 081°08'0 0.0
2015-Jan-21 15:31N 32°08' W 081°08'0 0.0
2015-Jan-21 14:33N 32°08' W 081°08'0 0.0
2015-Jan-21 13:33N 32°08' W 081°08'0 0.0
2015-Jan-21 12:33N 32°08' W 081°08'0 0.0
2015-Jan-21 11:33N 32°08' W 081°08'0 0.1
2015-Jan-21 10:34N 32°08' W 081°08'4 3.8
2015-Jan-21 09:33N 32°05' W 081°06'8 8.4
2015-Jan-21 08:33N 32°03' W 080°56'1212.4
2015-Jan-21 07:33N 31°58' W 080°43'5 4.9
2015-Jan-21 06:33N 31°58' W 080°37'9 8.8
2015-Jan-21 05:33N 31°59' W 080°27'9 8.9
2015-Jan-21 04:33N 32°00' W 080°16'  
2015-Jan-18 05:33N 37°54' W 076°09'5418.1
2015-Jan-18 02:33N 38°47' W 076°25'1717.4
2015-Jan-18 01:34N 39°04' W 076°24'1110.8
2015-Jan-18 00:33N 39°13' W 076°32'2 2.2
2015-Jan-17 23:31N 39°15' W 076°33'0 0.0
2015-Jan-17 22:33N 39°15' W 076°33'0 0.0
2015-Jan-17 21:33N 39°15' W 076°33'0 0.0
2015-Jan-17 20:32N 39°15' W 076°33'0 0.0
2015-Jan-17 19:32N 39°15' W 076°33'0 0.0
2015-Jan-17 18:32N 39°15' W 076°33'0 0.0
2015-Jan-17 17:31N 39°15' W 076°33'0 0.0
2015-Jan-17 16:31N 39°15' W 076°33'0 0.0
2015-Jan-17 15:33N 39°15' W 076°33'0 0.0
2015-Jan-17 14:30N 39°15' W 076°33'0 0.0
2015-Jan-17 13:32N 39°15' W 076°33'0 0.0
2015-Jan-17 12:32N 39°15' W 076°33'0 0.0
2015-Jan-17 11:32N 39°15' W 076°33'0 0.0
2015-Jan-17 10:32N 39°15' W 076°33'4 4.3
2015-Jan-17 09:33N 39°12' W 076°30'10 9.9
2015-Jan-17 08:33N 39°03' W 076°23'1515.3
2015-Jan-17 07:33N 38°48' W 076°25'4117.0
2015-Jan-17 05:10N 38°08' W 076°13'1017.0
2015-Jan-17 04:33N 37°58' W 076°11'137 7.6
2015-Jan-16 10:32N 39°26' W 073°56'1717.0
2015-Jan-16 09:33N 39°42' W 073°53'1817.1
2015-Jan-16 08:31N 39°60' W 073°51'1712.5
2015-Jan-16 07:08N 40°17' W 073°49'5 9.2
2015-Jan-16 06:33N 40°22' W 073°49'9 8.9
2015-Jan-16 05:33N 40°30' W 073°56'1212.2
2015-Jan-16 04:33N 40°39' W 074°07'3 3.1
2015-Jan-16 03:33N 40°41' W 074°09'0 0.0
2015-Jan-16 02:32N 40°41' W 074°09'0 0.0
2015-Jan-16 01:32N 40°41' W 074°09'0 0.0
2015-Jan-16 00:07N 40°41' W 074°09'0 0.0
2015-Jan-15 23:31N 40°41' W 074°09'0 0.0
2015-Jan-15 22:30N 40°41' W 074°09'0 0.0
2015-Jan-15 21:33N 40°41' W 074°09'0 0.0
2015-Jan-15 20:30N 40°41' W 074°09'0 0.0
2015-Jan-15 19:32N 40°41' W 074°09'0 0.0
2015-Jan-15 18:32N 40°41' W 074°09'0 0.0
2015-Jan-15 17:31N 40°41' W 074°09'0 0.0
2015-Jan-15 16:31N 40°41' W 074°09'0 0.0
2015-Jan-15 15:33N 40°41' W 074°09'0 0.0
2015-Jan-15 14:33N 40°41' W 074°09'0 0.0
2015-Jan-15 13:33N 40°41' W 074°09'0 0.0
2015-Jan-15 12:26N 40°41' W 074°09'0 0.0
2015-Jan-15 11:26N 40°41' W 074°09'1 1.3
2015-Jan-15 10:33N 40°40' W 074°08'4 4.2
2015-Jan-15 09:34N 40°38' W 074°03'1010.4
2015-Jan-15 08:34N 40°30' W 073°56'8 8.4
2015-Jan-15 07:34N 40°27' W 073°45'9 8.9
2015-Jan-15 06:33N 40°28' W 073°34'9 9.2
2015-Jan-15 05:33N 40°29' W 073°22'1010.1
2015-Jan-15 04:33N 40°29' W 073°08'1010.2
2015-Jan-15 03:33N 40°30' W 072°55'1010.3
2015-Jan-15 02:33N 40°31' W 072°42'1010.2
2015-Jan-15 01:33N 40°30' W 072°28'1010.3
2015-Jan-15 00:33N 40°31' W 072°14'1110.9
2015-Jan-14 23:33N 40°31' W 072°00'1110.6
2015-Jan-14 22:34N 40°31' W 071°46'1110.9
2015-Jan-14 21:33N 40°31' W 071°32'1110.9
2015-Jan-14 20:33N 40°32' W 071°18'1111.0
2015-Jan-14 19:33N 40°32' W 071°03'2412.1
2015-Jan-14 17:33N 40°33' W 070°31'1312.6
2015-Jan-14 16:33N 40°33' W 070°15'1312.8
2015-Jan-14 15:33N 40°33' W 069°58'1312.7
2015-Jan-14 14:33N 40°33' W 069°41'1412.4
2015-Jan-14 13:25N 40°34' W 069°22'1211.4
2015-Jan-14 12:19N 40°39' W 069°07'1910.0
2015-Jan-14 10:26N 40°58' W 069°08'910.7
2015-Jan-14 09:33N 41°06' W 069°14'1010.5
2015-Jan-14 08:33N 41°15' W 069°21'1010.4
2015-Jan-14 07:33N 41°24' W 069°27'1010.2
2015-Jan-14 06:33N 41°34' W 069°33'1210.6
2015-Jan-14 05:27N 41°44' W 069°40'1410.5
2015-Jan-14 04:07N 41°57' W 069°48'54 9.3
2015-Jan-13 22:22N 42°24' W 070°51'5 0.4
2015-Jan-13 09:05N 42°21' W 070°56'5 8.9
2015-Jan-13 08:33N 42°24' W 070°51'9 9.2
2015-Jan-13 07:33N 42°22' W 070°39'81 3.8
2015-Jan-12 10:06N 41°24' W 069°22'713.5
2015-Jan-12 09:33N 41°18' W 069°18'  

Dump ship's entire track history